createdAt,value
2023-02-11T00:00:17.415Z,6.33
2023-02-11T00:02:46.120Z,6.34
2023-02-11T00:05:14.307Z,6.35
2023-02-11T00:07:40.770Z,6.35
2023-02-11T00:10:07.961Z,6.29
2023-02-11T00:12:35.812Z,6.29
2023-02-11T00:15:02.654Z,6.26
2023-02-11T00:17:29.108Z,6.32
2023-02-11T00:19:55.549Z,6.33
2023-02-11T00:22:22.013Z,6.34
2023-02-11T00:24:48.579Z,6.30
2023-02-11T00:27:15.115Z,6.31
2023-02-11T00:29:41.522Z,6.28
2023-02-11T00:32:08.939Z,6.30
2023-02-11T00:34:36.648Z,6.30
2023-02-11T00:37:03.344Z,6.29
2023-02-11T00:39:29.875Z,6.31
2023-02-11T00:41:56.446Z,6.31
2023-02-11T00:44:22.904Z,6.34
2023-02-11T00:46:49.263Z,6.24
2023-02-11T00:49:16.000Z,6.24
2023-02-11T00:51:42.372Z,6.07
2023-02-11T00:54:08.837Z,6.02
2023-02-11T00:56:35.331Z,5.97
2023-02-11T00:59:01.829Z,5.82
2023-02-11T01:01:28.245Z,5.75
2023-02-11T01:03:54.649Z,5.65
2023-02-11T01:06:21.137Z,5.68
2023-02-11T01:08:47.564Z,5.56
2023-02-11T01:11:17.655Z,5.56
2023-02-11T01:13:44.438Z,5.49
2023-02-11T01:16:11.779Z,5.36
2023-02-11T01:18:38.630Z,5.37
2023-02-11T01:21:05.325Z,5.35
2023-02-11T01:23:32.196Z,5.35
2023-02-11T01:25:58.782Z,5.38
2023-02-11T01:28:28.258Z,5.33
2023-02-11T01:30:55.609Z,5.31
2023-02-11T01:33:23.317Z,5.31
2023-02-11T01:35:50.634Z,5.33
2023-02-11T01:38:23.363Z,5.30
2023-02-11T01:41:03.061Z,5.32
2023-02-11T01:43:33.735Z,5.32
2023-02-11T01:46:19.001Z,5.30
2023-02-11T01:48:51.175Z,5.32
2023-02-11T01:51:49.400Z,5.29
2023-02-11T01:54:39.506Z,5.22
2023-02-11T01:57:22.881Z,5.15
2023-02-11T01:59:55.217Z,5.23
2023-02-11T02:02:26.451Z,5.17
2023-02-11T02:05:03.513Z,5.19
2023-02-11T02:07:45.938Z,5.10
2023-02-11T02:10:19.130Z,5.09
2023-02-11T02:12:45.581Z,5.05
2023-02-11T02:15:19.715Z,5.01
2023-02-11T02:17:57.035Z,5.03
2023-02-11T02:20:36.581Z,5.03
2023-02-11T02:23:33.250Z,5.01
2023-02-11T02:26:11.638Z,5.01
2023-02-11T02:29:22.807Z,5.05
2023-02-11T02:32:17.080Z,5.04
2023-02-11T02:35:09.590Z,5.04
2023-02-11T02:37:42.039Z,5.00
2023-02-11T02:40:15.592Z,5.02
2023-02-11T02:42:43.888Z,5.03
2023-02-11T02:45:12.720Z,5.08
2023-02-11T02:47:39.369Z,4.96
2023-02-11T02:50:08.289Z,4.97
2023-02-11T02:53:08.893Z,4.95
2023-02-11T02:56:15.936Z,4.93
2023-02-11T02:59:03.540Z,4.89
2023-02-11T03:01:50.147Z,4.82
2023-02-11T03:04:30.884Z,4.76
2023-02-11T03:07:14.164Z,4.76
2023-02-11T03:09:46.886Z,4.75
2023-02-11T03:12:14.546Z,4.81
2023-02-11T03:14:42.127Z,4.84
2023-02-11T03:17:10.319Z,4.84
2023-02-11T03:19:41.139Z,4.81
2023-02-11T03:22:14.503Z,4.77
2023-02-11T03:24:41.788Z,4.81
2023-02-11T03:27:20.407Z,4.85
2023-02-11T03:30:26.199Z,4.85
2023-02-11T03:32:59.949Z,4.88
2023-02-11T03:35:35.935Z,4.90
2023-02-11T03:38:07.774Z,4.91
2023-02-11T03:40:40.302Z,4.89
2023-02-11T03:43:09.752Z,4.83
2023-02-11T03:45:38.303Z,4.80
2023-02-11T03:48:25.756Z,4.74
2023-02-11T03:50:54.481Z,4.78
2023-02-11T03:53:22.655Z,4.73
2023-02-11T03:55:51.205Z,4.72
2023-02-11T03:58:17.825Z,4.68
2023-02-11T04:00:44.770Z,4.70
2023-02-11T04:03:12.909Z,4.69
2023-02-11T04:05:39.925Z,4.65
2023-02-11T04:08:07.413Z,4.64
2023-02-11T04:10:33.832Z,4.60
2023-02-11T04:13:00.230Z,4.60
2023-02-11T04:15:26.753Z,4.73
2023-02-11T04:17:53.186Z,4.71
2023-02-11T04:20:19.670Z,4.75
2023-02-11T04:22:46.140Z,4.81
2023-02-11T04:25:12.597Z,4.88
2023-02-11T04:27:39.067Z,4.89
2023-02-11T04:30:07.087Z,4.95
2023-02-11T04:32:33.543Z,4.88
2023-02-11T04:35:00.144Z,4.90
2023-02-11T04:37:26.539Z,4.87
2023-02-11T04:39:52.967Z,4.85
2023-02-11T04:42:19.387Z,4.82
2023-02-11T04:44:45.890Z,4.80
2023-02-11T04:47:15.486Z,4.78
2023-02-11T04:49:42.167Z,4.77
2023-02-11T04:52:09.446Z,4.78
2023-02-11T04:54:35.890Z,4.74
2023-02-11T04:57:02.727Z,4.74
2023-02-11T04:59:29.421Z,4.72
2023-02-11T05:01:55.989Z,4.73
2023-02-11T05:04:22.481Z,4.72
2023-02-11T05:06:49.025Z,4.71
2023-02-11T05:09:15.651Z,4.77
2023-02-11T05:11:42.498Z,4.68
2023-02-11T05:14:09.075Z,4.62
2023-02-11T05:16:35.536Z,4.65
2023-02-11T05:19:01.991Z,4.61
2023-02-11T05:21:28.519Z,4.60
2023-02-11T05:23:54.963Z,4.51
2023-02-11T05:26:21.492Z,4.47
2023-02-11T05:28:47.887Z,4.49
2023-02-11T05:31:14.707Z,4.50
2023-02-11T05:33:41.816Z,4.39
2023-02-11T05:36:11.172Z,4.44
2023-02-11T05:38:38.365Z,4.41
2023-02-11T05:41:06.683Z,4.41
2023-02-11T05:43:35.233Z,4.40
2023-02-11T05:46:02.201Z,4.42
2023-02-11T05:48:28.652Z,4.34
2023-02-11T05:50:55.107Z,4.35
2023-02-11T05:53:22.368Z,4.37
2023-02-11T05:55:49.185Z,4.40
2023-02-11T05:58:15.774Z,4.34
2023-02-11T06:00:42.366Z,4.40
2023-02-11T06:03:08.795Z,4.40
2023-02-11T06:05:35.211Z,4.39
2023-02-11T06:08:01.660Z,4.44
2023-02-11T06:10:28.088Z,4.44
2023-02-11T06:12:54.515Z,4.44
2023-02-11T06:15:21.025Z,4.42
2023-02-11T06:17:47.454Z,4.44
2023-02-11T06:20:14.145Z,4.47
2023-02-11T06:22:40.579Z,4.43
2023-02-11T06:25:07.103Z,4.43
2023-02-11T06:27:33.537Z,4.48
2023-02-11T06:30:00.041Z,4.51
2023-02-11T06:32:45.388Z,4.57
2023-02-11T06:35:14.121Z,4.66
2023-02-11T06:37:41.282Z,4.65
2023-02-11T06:40:08.537Z,4.62
2023-02-11T06:42:36.098Z,4.60
2023-02-11T06:45:02.952Z,4.61
2023-02-11T06:47:29.418Z,4.62
2023-02-11T06:49:55.844Z,4.63
2023-02-11T06:52:22.408Z,4.61
2023-02-11T06:54:48.818Z,4.69
2023-02-11T06:57:15.274Z,4.72
2023-02-11T06:59:41.719Z,4.70
2023-02-11T07:02:10.241Z,4.72
2023-02-11T07:04:36.750Z,4.73
2023-02-11T07:07:03.297Z,4.69
2023-02-11T07:09:29.801Z,4.66
2023-02-11T07:11:56.248Z,4.67
2023-02-11T07:14:22.666Z,4.70
2023-02-11T07:16:49.185Z,4.77
2023-02-11T07:19:15.909Z,4.80
2023-02-11T07:21:42.405Z,4.83
2023-02-11T07:24:11.243Z,4.90
2023-02-11T07:26:38.092Z,4.98
2023-02-11T07:29:04.882Z,5.04
2023-02-11T07:31:32.084Z,5.03
2023-02-11T07:34:01.178Z,5.10
2023-02-11T07:36:30.095Z,5.14
2023-02-11T07:38:56.627Z,5.22
2023-02-11T07:41:25.020Z,5.26
2023-02-11T07:43:52.196Z,5.29
2023-02-11T07:46:21.520Z,5.32
2023-02-11T07:48:48.319Z,5.36
2023-02-11T07:51:26.932Z,5.44
2023-02-11T07:53:53.542Z,5.46
2023-02-11T07:56:21.420Z,5.46
2023-02-11T07:58:48.800Z,5.49
2023-02-11T08:01:18.972Z,5.55
2023-02-11T08:03:45.828Z,5.61
2023-02-11T08:06:14.340Z,5.65
2023-02-11T08:08:41.356Z,5.72
2023-02-11T08:11:09.248Z,5.76
2023-02-11T08:13:36.499Z,5.77
2023-02-11T08:16:03.983Z,5.83
2023-02-11T08:18:30.919Z,5.87
2023-02-11T08:20:57.341Z,5.89
2023-02-11T08:23:24.426Z,5.93
2023-02-11T08:25:50.858Z,5.96
2023-02-11T08:28:17.254Z,6.03
2023-02-11T08:30:43.702Z,6.09
2023-02-11T08:33:10.182Z,6.14
2023-02-11T08:35:38.817Z,6.15
2023-02-11T08:38:05.301Z,6.20
2023-02-11T08:40:31.709Z,6.24
2023-02-11T08:42:58.092Z,6.31
2023-02-11T08:45:24.546Z,6.33
2023-02-11T08:47:51.008Z,6.38
2023-02-11T08:50:17.413Z,6.39
2023-02-11T08:52:44.543Z,6.45
2023-02-11T08:55:11.422Z,6.51
2023-02-11T08:57:37.807Z,6.53
2023-02-11T09:00:05.043Z,6.58
2023-02-11T09:02:31.488Z,6.62
2023-02-11T09:04:57.945Z,6.64
2023-02-11T09:07:24.360Z,6.70
2023-02-11T09:09:50.721Z,6.76
2023-02-11T09:12:17.162Z,6.81
2023-02-11T09:14:43.701Z,6.86
2023-02-11T09:17:10.329Z,6.95
2023-02-11T09:19:36.896Z,7.03
2023-02-11T09:22:03.271Z,7.13
2023-02-11T09:24:29.703Z,7.29
2023-02-11T09:26:56.085Z,7.31
2023-02-11T09:29:22.440Z,7.22
2023-02-11T09:31:49.813Z,7.10
2023-02-11T09:34:16.358Z,7.14
2023-02-11T09:36:42.974Z,7.29
2023-02-11T09:39:13.349Z,7.66
2023-02-11T09:41:56.214Z,8.24
2023-02-11T09:44:26.044Z,8.47
2023-02-11T09:46:59.680Z,8.36
2023-02-11T09:49:34.486Z,8.72
2023-02-11T09:52:22.157Z,9.30
2023-02-11T09:54:54.104Z,9.27
2023-02-11T09:57:28.720Z,8.92
2023-02-11T09:59:56.654Z,8.80
2023-02-11T10:02:37.947Z,9.18
2023-02-11T10:05:21.268Z,8.90
2023-02-11T10:08:18.588Z,8.88
2023-02-11T10:10:52.785Z,9.13
2023-02-11T10:13:52.431Z,9.04
2023-02-11T10:16:25.395Z,9.23
2023-02-11T10:18:54.786Z,9.12
2023-02-11T10:21:56.283Z,9.18
2023-02-11T10:24:23.295Z,9.24
2023-02-11T10:26:51.755Z,9.27
2023-02-11T10:29:36.715Z,9.25
2023-02-11T10:32:13.602Z,9.18
2023-02-11T10:34:41.508Z,9.08
2023-02-11T10:37:12.883Z,9.02
2023-02-11T10:39:41.091Z,8.97
2023-02-11T10:42:13.023Z,8.99
2023-02-11T10:44:46.078Z,9.03
2023-02-11T10:47:24.028Z,9.05
2023-02-11T10:49:50.589Z,8.84
2023-02-11T10:52:21.337Z,8.91
2023-02-11T10:54:58.029Z,9.03
2023-02-11T10:57:46.783Z,8.99
2023-02-11T11:00:40.333Z,8.86
2023-02-11T11:03:22.778Z,9.07
2023-02-11T11:05:50.651Z,9.08
2023-02-11T11:08:18.457Z,9.08
2023-02-11T11:11:09.477Z,9.10
2023-02-11T11:13:38.486Z,9.18
2023-02-11T11:16:13.694Z,9.20
2023-02-11T11:18:41.999Z,9.14
2023-02-11T11:21:16.438Z,9.23
2023-02-11T11:23:50.090Z,9.22
2023-02-11T11:26:17.359Z,9.27
2023-02-11T11:28:46.842Z,9.32
2023-02-11T11:31:27.156Z,9.39
2023-02-11T11:33:56.556Z,9.49
2023-02-11T11:36:32.479Z,9.54
2023-02-11T11:39:03.439Z,9.79
2023-02-11T11:41:33.730Z,10.04
2023-02-11T11:44:27.043Z,10.05
2023-02-11T11:47:11.974Z,10.30
2023-02-11T11:50:01.446Z,10.02
2023-02-11T11:52:56.374Z,9.94
2023-02-11T11:55:27.360Z,9.87
2023-02-11T11:57:53.872Z,10.02
2023-02-11T12:00:37.657Z,9.83
2023-02-11T12:03:06.935Z,9.70
2023-02-11T12:05:41.997Z,9.60
2023-02-11T12:08:25.262Z,9.57
2023-02-11T12:11:05.028Z,9.68
2023-02-11T12:13:46.460Z,9.55
2023-02-11T12:16:39.473Z,9.57
2023-02-11T12:19:38.185Z,9.54
2023-02-11T12:22:10.852Z,9.46
2023-02-11T12:24:55.296Z,9.51
2023-02-11T12:27:52.692Z,9.62
2023-02-11T12:30:46.323Z,9.70
2023-02-11T12:33:37.131Z,9.71
2023-02-11T12:36:22.240Z,9.76
2023-02-11T12:39:10.083Z,9.72
2023-02-11T12:42:23.979Z,9.51
2023-02-11T12:45:11.981Z,9.47
2023-02-11T12:48:10.629Z,9.41
2023-02-11T12:50:57.425Z,9.42
2023-02-11T12:53:45.392Z,9.33
2023-02-11T12:56:24.214Z,9.34
2023-02-11T12:58:55.368Z,9.33
2023-02-11T13:01:30.464Z,9.31
2023-02-11T13:04:05.990Z,9.29
2023-02-11T13:06:54.443Z,9.31
2023-02-11T13:09:26.603Z,9.29
2023-02-11T13:11:55.975Z,9.27
2023-02-11T13:14:29.050Z,9.13
2023-02-11T13:16:58.264Z,9.17
2023-02-11T13:19:33.872Z,9.13
2023-02-11T13:22:13.386Z,9.00
2023-02-11T13:25:11.195Z,8.95
2023-02-11T13:27:59.275Z,8.92
2023-02-11T13:30:32.997Z,8.90
2023-02-11T13:33:02.173Z,8.86
2023-02-11T13:35:39.407Z,8.85
2023-02-11T13:38:24.448Z,8.80
2023-02-11T13:41:22.293Z,8.78
2023-02-11T13:43:59.602Z,8.77
2023-02-11T13:46:29.097Z,8.78
2023-02-11T13:48:56.693Z,8.77
2023-02-11T13:51:40.183Z,8.73
2023-02-11T13:54:08.355Z,8.74
2023-02-11T13:56:37.567Z,8.67
2023-02-11T13:59:27.352Z,8.61
2023-02-11T14:02:12.553Z,8.61
2023-02-11T14:05:22.923Z,8.64
2023-02-11T14:08:26.538Z,8.64
2023-02-11T14:10:58.504Z,8.60
2023-02-11T14:13:28.860Z,8.66
2023-02-11T14:16:20.392Z,8.54
2023-02-11T14:18:54.674Z,8.53
2023-02-11T14:21:27.259Z,8.55
2023-02-11T14:24:14.470Z,8.51
2023-02-11T14:26:56.086Z,8.50
2023-02-11T14:29:36.798Z,8.51
2023-02-11T14:32:09.343Z,8.47
2023-02-11T14:35:10.561Z,8.43
2023-02-11T14:38:02.833Z,8.40
2023-02-11T14:40:33.606Z,8.37
2023-02-11T14:43:13.439Z,8.31
2023-02-11T14:45:40.450Z,8.32
2023-02-11T14:48:18.158Z,8.31
2023-02-11T14:51:11.260Z,8.29
2023-02-11T14:53:43.865Z,8.26
2023-02-11T14:56:34.392Z,8.20
2023-02-11T14:59:02.696Z,8.19
2023-02-11T15:01:32.566Z,8.16
2023-02-11T15:04:00.920Z,8.14
2023-02-11T15:06:38.236Z,8.16
2023-02-11T15:09:27.824Z,8.14
2023-02-11T15:11:55.663Z,8.14
2023-02-11T15:14:31.824Z,8.09
2023-02-11T15:17:01.143Z,8.06
2023-02-11T15:19:34.516Z,8.06
2023-02-11T15:22:04.176Z,8.03
2023-02-11T15:24:32.743Z,8.00
2023-02-11T15:27:08.396Z,7.99
2023-02-11T15:29:40.858Z,7.95
2023-02-11T15:32:17.237Z,7.92
2023-02-11T15:34:45.451Z,7.85
2023-02-11T15:37:30.216Z,7.82
2023-02-11T15:40:07.892Z,7.81
2023-02-11T15:42:50.742Z,7.74
2023-02-11T15:45:28.822Z,7.68
2023-02-11T15:48:15.446Z,7.71
2023-02-11T15:50:48.787Z,7.62
2023-02-11T15:53:24.397Z,7.58
2023-02-11T15:55:54.177Z,7.52
2023-02-11T15:58:22.773Z,7.51
2023-02-11T16:00:59.580Z,7.47
2023-02-11T16:03:32.260Z,7.46
2023-02-11T16:06:23.159Z,7.44
2023-02-11T16:09:20.086Z,7.39
2023-02-11T16:11:46.416Z,7.34
2023-02-11T16:14:27.929Z,7.32
2023-02-11T16:16:58.059Z,7.26
2023-02-11T16:19:26.471Z,7.20
2023-02-11T16:21:55.438Z,7.18
2023-02-11T16:24:31.143Z,7.15
2023-02-11T16:27:01.148Z,7.12
2023-02-11T16:29:33.227Z,7.07
2023-02-11T16:32:15.576Z,7.04
2023-02-11T16:34:41.987Z,7.03
2023-02-11T16:37:08.470Z,7.02
2023-02-11T16:39:34.966Z,6.99
2023-02-11T16:42:02.044Z,6.95
2023-02-11T16:44:29.057Z,6.92
2023-02-11T16:46:59.435Z,6.89
2023-02-11T16:49:29.042Z,6.86
2023-02-11T16:52:01.028Z,6.83
2023-02-11T16:54:29.199Z,6.77
2023-02-11T16:56:56.639Z,6.71
2023-02-11T16:59:23.323Z,6.67
2023-02-11T17:01:51.971Z,6.68
2023-02-11T17:04:31.099Z,6.64
2023-02-11T17:06:58.675Z,6.62
2023-02-11T17:09:30.247Z,6.60
2023-02-11T17:11:57.597Z,6.59
2023-02-11T17:14:24.156Z,6.56
2023-02-11T17:16:50.919Z,6.57
2023-02-11T17:19:22.132Z,6.57
2023-02-11T17:21:51.105Z,6.57
2023-02-11T17:24:18.307Z,6.59
2023-02-11T17:26:46.139Z,6.58
2023-02-11T17:29:15.770Z,6.56
2023-02-11T17:31:42.332Z,6.55
2023-02-11T17:34:09.315Z,6.53
2023-02-11T17:36:36.520Z,6.52
2023-02-11T17:39:06.396Z,6.52
2023-02-11T17:41:34.834Z,6.51
2023-02-11T17:44:01.385Z,6.49
2023-02-11T17:46:32.030Z,6.46
2023-02-11T17:48:59.548Z,6.43
2023-02-11T17:51:32.006Z,6.42
2023-02-11T17:54:03.827Z,6.42
2023-02-11T17:56:32.783Z,6.40
2023-02-11T17:58:59.177Z,6.40
2023-02-11T18:01:30.888Z,6.42
2023-02-11T18:03:57.757Z,6.41
2023-02-11T18:06:24.499Z,6.43
2023-02-11T18:08:51.018Z,6.43
2023-02-11T18:11:17.547Z,6.41
2023-02-11T18:13:45.288Z,6.40
2023-02-11T18:16:15.737Z,6.43
2023-02-11T18:18:43.286Z,6.40
2023-02-11T18:21:14.788Z,6.44
2023-02-11T18:23:41.451Z,6.44
2023-02-11T18:26:08.856Z,6.45
2023-02-11T18:28:35.327Z,6.47
2023-02-11T18:31:02.825Z,6.46
2023-02-11T18:33:30.342Z,6.45
2023-02-11T18:35:57.104Z,6.44
2023-02-11T18:38:24.545Z,6.46
2023-02-11T18:40:52.393Z,6.44
2023-02-11T18:43:20.390Z,6.40
2023-02-11T18:45:47.975Z,6.38
2023-02-11T18:48:15.072Z,6.36
2023-02-11T18:50:45.585Z,6.35
2023-02-11T18:53:13.975Z,6.35
2023-02-11T18:55:42.217Z,6.32
2023-02-11T18:58:09.395Z,6.30
2023-02-11T19:00:38.569Z,6.29
2023-02-11T19:03:05.018Z,6.29
2023-02-11T19:05:33.500Z,6.26
2023-02-11T19:08:00.724Z,6.24
2023-02-11T19:10:27.976Z,6.25
2023-02-11T19:12:56.313Z,6.26
2023-02-11T19:15:23.223Z,6.27
2023-02-11T19:17:49.763Z,6.25
2023-02-11T19:20:16.600Z,6.22
2023-02-11T19:22:43.106Z,6.21
2023-02-11T19:25:09.580Z,6.21
2023-02-11T19:27:36.007Z,6.20
2023-02-11T19:30:02.525Z,6.20
2023-02-11T19:32:29.041Z,6.19
2023-02-11T19:34:55.407Z,6.16
2023-02-11T19:37:21.875Z,6.16
2023-02-11T19:39:48.407Z,6.15
2023-02-11T19:42:14.848Z,6.15
2023-02-11T19:44:41.324Z,6.15
2023-02-11T19:47:07.867Z,6.15
2023-02-11T19:49:34.347Z,6.14
2023-02-11T19:52:00.880Z,6.14
2023-02-11T19:54:29.138Z,6.11
2023-02-11T19:56:56.147Z,6.08
2023-02-11T19:59:22.719Z,6.04
2023-02-11T20:01:49.320Z,5.94
2023-02-11T20:04:16.749Z,5.83
2023-02-11T20:06:43.573Z,5.69
2023-02-11T20:09:13.216Z,5.60
2023-02-11T20:11:40.127Z,5.50
2023-02-11T20:14:06.843Z,5.43
2023-02-11T20:16:47.494Z,5.33
2023-02-11T20:19:18.267Z,5.28
2023-02-11T20:21:47.098Z,5.21
2023-02-11T20:24:14.241Z,5.15
2023-02-11T20:26:42.332Z,5.07
2023-02-11T20:29:09.329Z,4.97
2023-02-11T20:31:36.162Z,4.93
2023-02-11T20:34:02.801Z,4.84
2023-02-11T20:36:32.492Z,4.87
2023-02-11T20:38:59.856Z,4.80
2023-02-11T20:41:30.820Z,4.73
2023-02-11T20:44:01.309Z,4.69
2023-02-11T20:46:30.256Z,4.63
2023-02-11T20:48:57.538Z,4.56
2023-02-11T20:51:27.305Z,4.48
2023-02-11T20:53:54.282Z,4.43
2023-02-11T20:56:27.328Z,4.37
2023-02-11T20:58:53.730Z,4.30
2023-02-11T21:01:23.355Z,4.27
2023-02-11T21:03:56.442Z,4.21
2023-02-11T21:06:26.011Z,4.21
2023-02-11T21:08:53.909Z,4.22
2023-02-11T21:11:20.636Z,4.13
2023-02-11T21:13:48.661Z,4.04
2023-02-11T21:16:20.317Z,3.95
2023-02-11T21:18:47.496Z,3.90
2023-02-11T21:21:13.969Z,3.89
2023-02-11T21:23:40.600Z,3.90
2023-02-11T21:26:08.258Z,3.89
2023-02-11T21:28:35.710Z,3.88
2023-02-11T21:31:03.526Z,3.78
2023-02-11T21:33:33.564Z,3.78
2023-02-11T21:36:02.811Z,3.82
2023-02-11T21:38:29.963Z,3.80
2023-02-11T21:41:03.359Z,3.75
2023-02-11T21:43:29.747Z,3.71
2023-02-11T21:45:56.435Z,3.73
2023-02-11T21:48:23.886Z,3.71
2023-02-11T21:50:50.335Z,3.67
2023-02-11T21:53:17.452Z,3.66
2023-02-11T21:55:43.958Z,3.64
2023-02-11T21:58:12.626Z,3.62
2023-02-11T22:00:39.761Z,3.49
2023-02-11T22:03:06.328Z,3.40
2023-02-11T22:05:32.709Z,3.33
2023-02-11T22:07:59.063Z,3.33
2023-02-11T22:10:25.503Z,3.27
2023-02-11T22:12:52.066Z,3.21
2023-02-11T22:15:18.613Z,3.11
2023-02-11T22:17:45.064Z,3.17
2023-02-11T22:20:11.914Z,3.20
2023-02-11T22:22:38.320Z,3.15
2023-02-11T22:25:05.022Z,3.09
2023-02-11T22:27:31.481Z,3.17
2023-02-11T22:29:57.870Z,3.19
2023-02-11T22:32:24.260Z,3.17
2023-02-11T22:34:53.220Z,3.17
2023-02-11T22:37:19.950Z,3.13
2023-02-11T22:39:46.535Z,3.13
2023-02-11T22:42:12.938Z,3.05
2023-02-11T22:44:39.344Z,3.01
2023-02-11T22:47:05.804Z,2.93
2023-02-11T22:49:35.590Z,2.96
2023-02-11T22:52:02.135Z,3.00
2023-02-11T22:54:28.640Z,2.97
2023-02-11T22:56:55.387Z,2.84
2023-02-11T22:59:22.094Z,2.82
2023-02-11T23:01:49.133Z,2.74
2023-02-11T23:04:17.009Z,2.77
2023-02-11T23:06:43.942Z,2.82
2023-02-11T23:09:12.405Z,2.82
2023-02-11T23:11:40.413Z,2.71
2023-02-11T23:14:08.629Z,2.59
2023-02-11T23:16:35.542Z,2.49
2023-02-11T23:19:05.028Z,2.43
2023-02-11T23:21:33.987Z,2.38
2023-02-11T23:24:03.478Z,2.35
2023-02-11T23:26:30.069Z,2.26
2023-02-11T23:28:58.675Z,2.27
2023-02-11T23:31:28.087Z,2.23
2023-02-11T23:33:55.026Z,2.23
2023-02-11T23:36:22.115Z,2.18
2023-02-11T23:38:49.135Z,2.13
2023-02-11T23:41:16.621Z,2.16
2023-02-11T23:43:43.685Z,2.14
2023-02-11T23:46:11.827Z,2.02
2023-02-11T23:48:40.285Z,1.92
2023-02-11T23:51:07.464Z,1.90
2023-02-11T23:53:33.908Z,1.81
2023-02-11T23:56:00.310Z,1.77
2023-02-11T23:58:26.719Z,1.75
